sensor_id;sensor_type;location;lat;lon;timestamp;temperature;humidity
16040;DHT22;8124;48.634;8.120;2022-12-22T00:00:09;13.90;99.90
16040;DHT22;8124;48.634;8.120;2022-12-22T00:05:31;13.90;99.90
16040;DHT22;8124;48.634;8.120;2022-12-22T00:10:53;13.90;99.90
16040;DHT22;8124;48.634;8.120;2022-12-22T00:16:14;13.80;99.90
16040;DHT22;8124;48.634;8.120;2022-12-22T00:21:35;13.90;99.90
16040;DHT22;8124;48.634;8.120;2022-12-22T00:26:57;13.90;99.90
16040;DHT22;8124;48.634;8.120;2022-12-22T00:32:17;13.90;99.90
16040;DHT22;8124;48.634;8.120;2022-12-22T00:37:38;13.90;99.90
16040;DHT22;8124;48.634;8.120;2022-12-22T00:43:00;13.80;99.90
16040;DHT22;8124;48.634;8.120;2022-12-22T00:48:22;13.70;99.90
16040;DHT22;8124;48.634;8.120;2022-12-22T00:53:44;13.70;99.90
16040;DHT22;8124;48.634;8.120;2022-12-22T00:59:08;13.70;99.90
16040;DHT22;8124;48.634;8.120;2022-12-22T01:04:29;13.60;99.90
16040;DHT22;8124;48.634;8.120;2022-12-22T01:09:51;13.50;99.90
16040;DHT22;8124;48.634;8.120;2022-12-22T01:15:14;13.50;99.90
16040;DHT22;8124;48.634;8.120;2022-12-22T01:20:35;13.50;99.90
16040;DHT22;8124;48.634;8.120;2022-12-22T01:25:55;13.60;99.90
16040;DHT22;8124;48.634;8.120;2022-12-22T01:31:22;13.60;99.90
16040;DHT22;8124;48.634;8.120;2022-12-22T01:36:44;13.60;99.90
16040;DHT22;8124;48.634;8.120;2022-12-22T01:42:06;13.50;99.90
16040;DHT22;8124;48.634;8.120;2022-12-22T01:47:33;13.60;99.90
16040;DHT22;8124;48.634;8.120;2022-12-22T01:52:53;13.60;99.90
16040;DHT22;8124;48.634;8.120;2022-12-22T01:58:26;13.60;99.90
16040;DHT22;8124;48.634;8.120;2022-12-22T02:03:49;13.50;99.90
16040;DHT22;8124;48.634;8.120;2022-12-22T02:09:21;13.50;99.90
16040;DHT22;8124;48.634;8.120;2022-12-22T02:14:45;13.50;99.90
16040;DHT22;8124;48.634;8.120;2022-12-22T02:25:59;13.50;99.90
16040;DHT22;8124;48.634;8.120;2022-12-22T02:31:22;13.60;99.90
16040;DHT22;8124;48.634;8.120;2022-12-22T02:36:56;13.50;99.90
16040;DHT22;8124;48.634;8.120;2022-12-22T02:42:26;13.50;99.90
16040;DHT22;8124;48.634;8.120;2022-12-22T02:47:57;13.50;99.90
16040;DHT22;8124;48.634;8.120;2022-12-22T02:53:22;13.60;99.90
16040;DHT22;8124;48.634;8.120;2022-12-22T02:58:43;13.50;99.90
16040;DHT22;8124;48.634;8.120;2022-12-22T03:04:05;13.60;99.90
16040;DHT22;8124;48.634;8.120;2022-12-22T03:09:25;13.60;99.90
16040;DHT22;8124;48.634;8.120;2022-12-22T03:14:46;13.70;99.90
16040;DHT22;8124;48.634;8.120;2022-12-22T03:20:08;13.50;99.90
16040;DHT22;8124;48.634;8.120;2022-12-22T03:25:29;13.60;99.90
16040;DHT22;8124;48.634;8.120;2022-12-22T03:31:00;13.60;99.90
16040;DHT22;8124;48.634;8.120;2022-12-22T03:36:05;13.60;99.90
16040;DHT22;8124;48.634;8.120;2022-12-22T03:41:08;13.60;99.90
16040;DHT22;8124;48.634;8.120;2022-12-22T03:46:32;13.50;99.90
16040;DHT22;8124;48.634;8.120;2022-12-22T03:51:39;13.50;99.90
16040;DHT22;8124;48.634;8.120;2022-12-22T03:56:42;13.60;99.90
16040;DHT22;8124;48.634;8.120;2022-12-22T04:01:47;13.40;99.90
16040;DHT22;8124;48.634;8.120;2022-12-22T04:06:53;13.40;99.90
16040;DHT22;8124;48.634;8.120;2022-12-22T04:11:56;13.40;99.90
16040;DHT22;8124;48.634;8.120;2022-12-22T04:17:16;13.20;99.90
16040;DHT22;8124;48.634;8.120;2022-12-22T04:22:21;13.30;99.90
16040;DHT22;8124;48.634;8.120;2022-12-22T04:27:23;13.20;99.90
16040;DHT22;8124;48.634;8.120;2022-12-22T04:32:26;13.20;99.90
16040;DHT22;8124;48.634;8.120;2022-12-22T04:37:30;13.30;99.90
16040;DHT22;8124;48.634;8.120;2022-12-22T04:42:33;13.30;99.90
16040;DHT22;8124;48.634;8.120;2022-12-22T04:47:36;13.40;99.90
16040;DHT22;8124;48.634;8.120;2022-12-22T04:52:40;13.40;99.90
16040;DHT22;8124;48.634;8.120;2022-12-22T04:57:44;13.30;99.90
16040;DHT22;8124;48.634;8.120;2022-12-22T05:02:47;13.40;99.90
16040;DHT22;8124;48.634;8.120;2022-12-22T05:07:51;13.40;99.90
16040;DHT22;8124;48.634;8.120;2022-12-22T05:12:54;13.30;99.90
16040;DHT22;8124;48.634;8.120;2022-12-22T05:17:58;13.40;99.90
16040;DHT22;8124;48.634;8.120;2022-12-22T05:23:02;13.40;99.90
16040;DHT22;8124;48.634;8.120;2022-12-22T05:28:05;13.40;99.90
16040;DHT22;8124;48.634;8.120;2022-12-22T05:33:08;13.50;99.90
16040;DHT22;8124;48.634;8.120;2022-12-22T05:38:12;13.60;99.90
16040;DHT22;8124;48.634;8.120;2022-12-22T05:43:15;13.60;99.90
16040;DHT22;8124;48.634;8.120;2022-12-22T05:48:18;13.60;99.90
16040;DHT22;8124;48.634;8.120;2022-12-22T05:53:31;13.60;99.90
16040;DHT22;8124;48.634;8.120;2022-12-22T05:58:36;13.60;99.90
16040;DHT22;8124;48.634;8.120;2022-12-22T06:03:39;13.60;99.90
16040;DHT22;8124;48.634;8.120;2022-12-22T06:08:43;13.60;99.90
16040;DHT22;8124;48.634;8.120;2022-12-22T06:13:46;13.60;99.90
16040;DHT22;8124;48.634;8.120;2022-12-22T06:18:51;13.80;99.90
16040;DHT22;8124;48.634;8.120;2022-12-22T06:23:55;13.70;99.90
16040;DHT22;8124;48.634;8.120;2022-12-22T06:28:58;13.70;99.90
16040;DHT22;8124;48.634;8.120;2022-12-22T06:34:01;13.60;99.90
16040;DHT22;8124;48.634;8.120;2022-12-22T06:39:06;13.70;99.90
16040;DHT22;8124;48.634;8.120;2022-12-22T06:44:08;13.70;99.90
16040;DHT22;8124;48.634;8.120;2022-12-22T06:49:11;13.80;99.90
16040;DHT22;8124;48.634;8.120;2022-12-22T06:54:24;13.80;99.90
16040;DHT22;8124;48.634;8.120;2022-12-22T06:59:27;13.70;99.90
16040;DHT22;8124;48.634;8.120;2022-12-22T07:04:30;13.70;99.90
16040;DHT22;8124;48.634;8.120;2022-12-22T07:09:34;13.80;99.90
16040;DHT22;8124;48.634;8.120;2022-12-22T07:14:37;13.70;99.90
16040;DHT22;8124;48.634;8.120;2022-12-22T07:19:40;13.70;99.90
16040;DHT22;8124;48.634;8.120;2022-12-22T07:24:44;13.70;99.90
16040;DHT22;8124;48.634;8.120;2022-12-22T07:29:47;13.60;99.90
16040;DHT22;8124;48.634;8.120;2022-12-22T07:34:50;13.70;99.90
16040;DHT22;8124;48.634;8.120;2022-12-22T07:39:54;13.70;99.90
16040;DHT22;8124;48.634;8.120;2022-12-22T07:44:57;13.60;99.90
16040;DHT22;8124;48.634;8.120;2022-12-22T07:50:00;13.70;99.90
16040;DHT22;8124;48.634;8.120;2022-12-22T07:55:22;13.60;99.90
16040;DHT22;8124;48.634;8.120;2022-12-22T08:00:25;13.60;99.90
16040;DHT22;8124;48.634;8.120;2022-12-22T08:05:28;13.70;99.90
16040;DHT22;8124;48.634;8.120;2022-12-22T08:10:33;13.60;99.90
16040;DHT22;8124;48.634;8.120;2022-12-22T08:15:35;13.70;99.90
16040;DHT22;8124;48.634;8.120;2022-12-22T08:20:38;13.70;99.90
16040;DHT22;8124;48.634;8.120;2022-12-22T08:25:43;13.80;99.90
16040;DHT22;8124;48.634;8.120;2022-12-22T08:30:47;13.70;99.90
16040;DHT22;8124;48.634;8.120;2022-12-22T08:35:50;13.70;99.90
16040;DHT22;8124;48.634;8.120;2022-12-22T08:40:55;13.60;99.90
16040;DHT22;8124;48.634;8.120;2022-12-22T08:45:58;13.50;99.90
16040;DHT22;8124;48.634;8.120;2022-12-22T08:51:00;13.30;99.90
16040;DHT22;8124;48.634;8.120;2022-12-22T08:56:05;13.20;99.90
16040;DHT22;8124;48.634;8.120;2022-12-22T09:01:15;13.10;99.90
16040;DHT22;8124;48.634;8.120;2022-12-22T09:06:19;13.10;99.90
16040;DHT22;8124;48.634;8.120;2022-12-22T09:11:37;13.10;99.90
16040;DHT22;8124;48.634;8.120;2022-12-22T09:16:40;13.00;99.90
16040;DHT22;8124;48.634;8.120;2022-12-22T09:21:43;13.00;99.90
16040;DHT22;8124;48.634;8.120;2022-12-22T09:26:48;13.00;99.90
16040;DHT22;8124;48.634;8.120;2022-12-22T09:31:51;13.00;99.90
16040;DHT22;8124;48.634;8.120;2022-12-22T09:36:56;13.00;99.90
16040;DHT22;8124;48.634;8.120;2022-12-22T09:42:00;12.90;99.90
16040;DHT22;8124;48.634;8.120;2022-12-22T09:47:16;12.90;99.90
16040;DHT22;8124;48.634;8.120;2022-12-22T09:52:23;12.80;99.90
16040;DHT22;8124;48.634;8.120;2022-12-22T09:57:30;12.90;99.90
16040;DHT22;8124;48.634;8.120;2022-12-22T10:02:43;12.80;99.90
16040;DHT22;8124;48.634;8.120;2022-12-22T10:07:49;13.00;99.90
16040;DHT22;8124;48.634;8.120;2022-12-22T10:12:55;13.00;99.90
16040;DHT22;8124;48.634;8.120;2022-12-22T10:18:09;13.00;99.90
16040;DHT22;8124;48.634;8.120;2022-12-22T10:23:15;13.00;99.90
16040;DHT22;8124;48.634;8.120;2022-12-22T10:28:22;13.00;99.90
16040;DHT22;8124;48.634;8.120;2022-12-22T10:33:33;13.10;99.90
16040;DHT22;8124;48.634;8.120;2022-12-22T10:38:59;12.90;99.90
16040;DHT22;8124;48.634;8.120;2022-12-22T10:44:07;12.90;99.90
16040;DHT22;8124;48.634;8.120;2022-12-22T10:49:18;12.90;99.90
16040;DHT22;8124;48.634;8.120;2022-12-22T10:54:28;13.00;99.90
16040;DHT22;8124;48.634;8.120;2022-12-22T10:59:33;13.00;99.90
16040;DHT22;8124;48.634;8.120;2022-12-22T11:04:36;13.00;99.90
16040;DHT22;8124;48.634;8.120;2022-12-22T11:09:39;13.10;99.90
16040;DHT22;8124;48.634;8.120;2022-12-22T11:14:49;13.20;99.90
16040;DHT22;8124;48.634;8.120;2022-12-22T11:20:09;13.10;99.90
16040;DHT22;8124;48.634;8.120;2022-12-22T11:25:28;13.20;99.90
16040;DHT22;8124;48.634;8.120;2022-12-22T11:30:44;13.30;99.90
16040;DHT22;8124;48.634;8.120;2022-12-22T11:35:58;13.30;99.90
16040;DHT22;8124;48.634;8.120;2022-12-22T11:41:08;13.30;99.90
16040;DHT22;8124;48.634;8.120;2022-12-22T11:46:22;13.30;99.90
16040;DHT22;8124;48.634;8.120;2022-12-22T11:51:51;13.40;99.90
16040;DHT22;8124;48.634;8.120;2022-12-22T11:57:04;13.40;99.90
16040;DHT22;8124;48.634;8.120;2022-12-22T12:02:32;13.40;99.90
16040;DHT22;8124;48.634;8.120;2022-12-22T12:07:42;13.40;99.90
16040;DHT22;8124;48.634;8.120;2022-12-22T12:12:53;13.20;99.90
16040;DHT22;8124;48.634;8.120;2022-12-22T12:18:29;13.30;99.90
16040;DHT22;8124;48.634;8.120;2022-12-22T12:23:48;13.30;99.90
16040;DHT22;8124;48.634;8.120;2022-12-22T12:29:05;13.30;99.90
16040;DHT22;8124;48.634;8.120;2022-12-22T12:34:15;13.30;99.90
16040;DHT22;8124;48.634;8.120;2022-12-22T12:39:22;13.40;99.90
16040;DHT22;8124;48.634;8.120;2022-12-22T12:44:34;13.40;99.90
16040;DHT22;8124;48.634;8.120;2022-12-22T12:55:58;13.40;99.90
16040;DHT22;8124;48.634;8.120;2022-12-22T13:01:02;13.40;99.90
16040;DHT22;8124;48.634;8.120;2022-12-22T13:06:07;13.50;99.90
16040;DHT22;8124;48.634;8.120;2022-12-22T13:11:30;13.50;99.90
16040;DHT22;8124;48.634;8.120;2022-12-22T13:22:32;13.60;99.90
16040;DHT22;8124;48.634;8.120;2022-12-22T13:27:38;13.60;99.90
16040;DHT22;8124;48.634;8.120;2022-12-22T13:32:42;13.60;99.90
16040;DHT22;8124;48.634;8.120;2022-12-22T13:37:49;13.70;99.90
16040;DHT22;8124;48.634;8.120;2022-12-22T13:42:59;13.60;99.90
16040;DHT22;8124;48.634;8.120;2022-12-22T13:48:11;13.60;99.90
16040;DHT22;8124;48.634;8.120;2022-12-22T13:53:26;13.60;99.90
16040;DHT22;8124;48.634;8.120;2022-12-22T13:58:57;13.70;99.90
16040;DHT22;8124;48.634;8.120;2022-12-22T14:04:11;13.60;99.90
16040;DHT22;8124;48.634;8.120;2022-12-22T14:09:18;13.70;99.90
16040;DHT22;8124;48.634;8.120;2022-12-22T14:14:25;13.70;99.90
16040;DHT22;8124;48.634;8.120;2022-12-22T14:19:31;13.60;99.90
16040;DHT22;8124;48.634;8.120;2022-12-22T14:24:40;13.60;99.90
16040;DHT22;8124;48.634;8.120;2022-12-22T14:29:44;13.50;99.90
16040;DHT22;8124;48.634;8.120;2022-12-22T14:34:52;13.50;99.90
16040;DHT22;8124;48.634;8.120;2022-12-22T14:39:56;13.50;99.90
16040;DHT22;8124;48.634;8.120;2022-12-22T14:45:00;13.50;99.90
16040;DHT22;8124;48.634;8.120;2022-12-22T14:50:15;13.50;99.90
16040;DHT22;8124;48.634;8.120;2022-12-22T14:55:23;13.50;99.90
16040;DHT22;8124;48.634;8.120;2022-12-22T15:00:33;13.50;99.90
16040;DHT22;8124;48.634;8.120;2022-12-22T15:05:37;13.60;99.90
16040;DHT22;8124;48.634;8.120;2022-12-22T15:10:44;13.50;99.90
16040;DHT22;8124;48.634;8.120;2022-12-22T15:15:50;13.50;99.90
16040;DHT22;8124;48.634;8.120;2022-12-22T15:20:55;13.50;99.90
16040;DHT22;8124;48.634;8.120;2022-12-22T15:25:59;13.50;99.90
16040;DHT22;8124;48.634;8.120;2022-12-22T15:31:08;13.60;99.90
16040;DHT22;8124;48.634;8.120;2022-12-22T15:36:14;13.60;99.90
16040;DHT22;8124;48.634;8.120;2022-12-22T15:41:16;13.60;99.90
16040;DHT22;8124;48.634;8.120;2022-12-22T15:46:21;13.50;99.90
16040;DHT22;8124;48.634;8.120;2022-12-22T15:51:31;13.50;99.90
16040;DHT22;8124;48.634;8.120;2022-12-22T15:56:34;13.50;99.90
16040;DHT22;8124;48.634;8.120;2022-12-22T16:01:39;13.60;99.90
16040;DHT22;8124;48.634;8.120;2022-12-22T16:06:42;13.40;99.90
16040;DHT22;8124;48.634;8.120;2022-12-22T16:11:49;13.40;99.90
16040;DHT22;8124;48.634;8.120;2022-12-22T16:16:53;13.50;99.90
16040;DHT22;8124;48.634;8.120;2022-12-22T16:21:57;13.50;99.90
16040;DHT22;8124;48.634;8.120;2022-12-22T16:27:01;13.50;99.90
16040;DHT22;8124;48.634;8.120;2022-12-22T16:32:21;13.60;99.90
16040;DHT22;8124;48.634;8.120;2022-12-22T16:37:25;13.60;99.90
16040;DHT22;8124;48.634;8.120;2022-12-22T16:42:30;13.70;99.90
16040;DHT22;8124;48.634;8.120;2022-12-22T16:47:53;13.60;99.90
16040;DHT22;8124;48.634;8.120;2022-12-22T16:52:58;13.70;99.90
16040;DHT22;8124;48.634;8.120;2022-12-22T16:58:01;13.70;99.90
16040;DHT22;8124;48.634;8.120;2022-12-22T17:03:17;13.70;99.90
16040;DHT22;8124;48.634;8.120;2022-12-22T17:08:24;13.70;99.90
16040;DHT22;8124;48.634;8.120;2022-12-22T17:13:27;13.70;99.90
16040;DHT22;8124;48.634;8.120;2022-12-22T17:18:32;13.60;99.90
16040;DHT22;8124;48.634;8.120;2022-12-22T17:23:37;13.70;99.90
16040;DHT22;8124;48.634;8.120;2022-12-22T17:28:42;13.70;99.90
16040;DHT22;8124;48.634;8.120;2022-12-22T17:33:47;13.70;99.90
16040;DHT22;8124;48.634;8.120;2022-12-22T17:38:50;13.70;99.90
16040;DHT22;8124;48.634;8.120;2022-12-22T17:43:53;13.70;99.90
16040;DHT22;8124;48.634;8.120;2022-12-22T17:48:57;13.70;99.90
16040;DHT22;8124;48.634;8.120;2022-12-22T17:54:00;13.70;99.90
16040;DHT22;8124;48.634;8.120;2022-12-22T17:59:03;13.70;99.90
16040;DHT22;8124;48.634;8.120;2022-12-22T18:04:08;13.80;99.90
16040;DHT22;8124;48.634;8.120;2022-12-22T18:09:18;13.70;99.90
16040;DHT22;8124;48.634;8.120;2022-12-22T18:14:22;13.70;99.90
16040;DHT22;8124;48.634;8.120;2022-12-22T18:19:27;13.60;99.90
16040;DHT22;8124;48.634;8.120;2022-12-22T18:24:30;13.40;99.90
16040;DHT22;8124;48.634;8.120;2022-12-22T18:29:34;13.40;99.90
16040;DHT22;8124;48.634;8.120;2022-12-22T18:34:40;13.40;99.90
16040;DHT22;8124;48.634;8.120;2022-12-22T18:39:45;13.40;99.90
16040;DHT22;8124;48.634;8.120;2022-12-22T18:44:49;13.40;99.90
16040;DHT22;8124;48.634;8.120;2022-12-22T18:49:53;13.40;99.90
16040;DHT22;8124;48.634;8.120;2022-12-22T18:54:56;13.30;99.90
16040;DHT22;8124;48.634;8.120;2022-12-22T19:00:05;13.20;99.90
16040;DHT22;8124;48.634;8.120;2022-12-22T19:05:18;13.20;99.90
16040;DHT22;8124;48.634;8.120;2022-12-22T19:10:25;13.30;99.90
16040;DHT22;8124;48.634;8.120;2022-12-22T19:15:34;13.40;99.90
16040;DHT22;8124;48.634;8.120;2022-12-22T19:20:40;13.20;99.90
16040;DHT22;8124;48.634;8.120;2022-12-22T19:25:44;13.20;99.90
16040;DHT22;8124;48.634;8.120;2022-12-22T19:30:48;13.20;99.90
16040;DHT22;8124;48.634;8.120;2022-12-22T19:35:53;13.20;99.90
16040;DHT22;8124;48.634;8.120;2022-12-22T19:40:59;13.20;99.90
16040;DHT22;8124;48.634;8.120;2022-12-22T19:46:08;13.10;99.90
16040;DHT22;8124;48.634;8.120;2022-12-22T19:51:12;13.30;99.90
16040;DHT22;8124;48.634;8.120;2022-12-22T19:56:21;13.10;99.90
16040;DHT22;8124;48.634;8.120;2022-12-22T20:01:24;13.10;99.90
16040;DHT22;8124;48.634;8.120;2022-12-22T20:06:29;13.10;99.90
16040;DHT22;8124;48.634;8.120;2022-12-22T20:11:32;13.10;99.90
16040;DHT22;8124;48.634;8.120;2022-12-22T20:16:35;13.20;99.90
16040;DHT22;8124;48.634;8.120;2022-12-22T20:21:46;13.10;99.90
16040;DHT22;8124;48.634;8.120;2022-12-22T20:26:49;13.10;99.90
16040;DHT22;8124;48.634;8.120;2022-12-22T20:31:55;13.10;99.90
16040;DHT22;8124;48.634;8.120;2022-12-22T20:36:59;13.10;99.90
16040;DHT22;8124;48.634;8.120;2022-12-22T20:42:02;13.00;99.90
16040;DHT22;8124;48.634;8.120;2022-12-22T20:47:09;12.90;99.90
16040;DHT22;8124;48.634;8.120;2022-12-22T20:52:22;12.80;99.90
16040;DHT22;8124;48.634;8.120;2022-12-22T20:57:32;13.00;99.90
16040;DHT22;8124;48.634;8.120;2022-12-22T21:02:35;12.90;99.90
16040;DHT22;8124;48.634;8.120;2022-12-22T21:07:39;12.90;99.90
16040;DHT22;8124;48.634;8.120;2022-12-22T21:12:43;12.80;99.90
16040;DHT22;8124;48.634;8.120;2022-12-22T21:17:47;12.80;99.90
16040;DHT22;8124;48.634;8.120;2022-12-22T21:23:00;12.80;99.90
16040;DHT22;8124;48.634;8.120;2022-12-22T21:28:05;12.90;99.90
16040;DHT22;8124;48.634;8.120;2022-12-22T21:33:09;12.90;99.90
16040;DHT22;8124;48.634;8.120;2022-12-22T21:38:15;12.80;99.90
16040;DHT22;8124;48.634;8.120;2022-12-22T21:43:19;12.80;99.90
16040;DHT22;8124;48.634;8.120;2022-12-22T21:48:22;12.80;99.90
16040;DHT22;8124;48.634;8.120;2022-12-22T21:53:26;12.80;99.90
16040;DHT22;8124;48.634;8.120;2022-12-22T21:58:29;12.80;99.90
16040;DHT22;8124;48.634;8.120;2022-12-22T22:03:32;12.80;99.90
16040;DHT22;8124;48.634;8.120;2022-12-22T22:08:36;12.80;99.90
16040;DHT22;8124;48.634;8.120;2022-12-22T22:13:39;12.80;99.90
16040;DHT22;8124;48.634;8.120;2022-12-22T22:18:43;12.80;99.90
16040;DHT22;8124;48.634;8.120;2022-12-22T22:23:48;12.90;99.90
16040;DHT22;8124;48.634;8.120;2022-12-22T22:28:51;12.80;99.90
16040;DHT22;8124;48.634;8.120;2022-12-22T22:33:55;12.80;99.90
16040;DHT22;8124;48.634;8.120;2022-12-22T22:38:59;12.80;99.90
16040;DHT22;8124;48.634;8.120;2022-12-22T22:44:02;13.00;99.90
16040;DHT22;8124;48.634;8.120;2022-12-22T22:49:05;12.90;99.90
16040;DHT22;8124;48.634;8.120;2022-12-22T22:54:09;12.90;99.90
16040;DHT22;8124;48.634;8.120;2022-12-22T22:59:13;13.00;99.90
16040;DHT22;8124;48.634;8.120;2022-12-22T23:04:16;13.00;99.90
16040;DHT22;8124;48.634;8.120;2022-12-22T23:09:21;13.00;99.90
16040;DHT22;8124;48.634;8.120;2022-12-22T23:14:24;13.00;99.90
16040;DHT22;8124;48.634;8.120;2022-12-22T23:19:27;13.10;99.90
16040;DHT22;8124;48.634;8.120;2022-12-22T23:24:32;13.20;99.90
16040;DHT22;8124;48.634;8.120;2022-12-22T23:29:35;13.20;99.90
16040;DHT22;8124;48.634;8.120;2022-12-22T23:34:38;13.20;99.90
16040;DHT22;8124;48.634;8.120;2022-12-22T23:39:42;13.20;99.90
16040;DHT22;8124;48.634;8.120;2022-12-22T23:44:45;13.30;99.90
16040;DHT22;8124;48.634;8.120;2022-12-22T23:49:49;13.40;99.90
16040;DHT22;8124;48.634;8.120;2022-12-22T23:54:53;13.50;99.90
16040;DHT22;8124;48.634;8.120;2022-12-22T23:59:56;13.50;99.90
